This is the latest recevied weather packets stored in our database for station/object IU8HRV-10. If no packets are shown the sender has not sent any weather packets the latest 10 day(s).
| Time | Temp. | Humidity | Pressure | Rain* | Wind** | Luminosity | Snow |
|---|---|---|---|---|---|---|---|
| 1777472866 | 35.56° C | 26% | 1016 hPa | - | - | - | - |
| 1777471965 | 35.56° C | 25% | 1017 hPa | - | - | - | - |
| 1777471064 | 35° C | 26% | 1017 hPa | - | - | - | - |
| 1777470162 | 35° C | 26% | 1017 hPa | - | - | - | - |
| 1777469261 | 34.44° C | 26% | 1017 hPa | - | - | - | - |
| 1777468360 | 33.33° C | 26% | 1017 hPa | - | - | - | - |
| 1777467459 | 33.33° C | 26% | 1017 hPa | - | - | - | - |
| 1777466558 | 31.11° C | 29% | 1017 hPa | - | - | - | - |
| 1777465657 | 31.11° C | 28% | 1017 hPa | - | - | - | - |
| 1777464756 | 30.56° C | 29% | 1017 hPa | - | - | - | - |
| 1777463854 | 29.44° C | 29% | 1017 hPa | - | - | - | - |
| 1777462953 | 28.89° C | 30% | 1017 hPa | - | - | - | - |
| 1777462052 | 27.78° C | 30% | 1017 hPa | - | - | - | - |
| 1777461151 | 27.22° C | 31% | 1017 hPa | - | - | - | - |
| 1777460250 | 27.22° C | 31% | 1017 hPa | - | - | - | - |
| 1777459349 | 26.67° C | 31% | 1017 hPa | - | - | - | - |
| 1777458448 | 27.78° C | 30% | 1017 hPa | - | - | - | - |
| 1777457547 | 27.22° C | 31% | 1017 hPa | - | - | - | - |
| 1777456646 | 26.67° C | 32% | 1018 hPa | - | - | - | - |
| 1777455745 | 26.67° C | 31% | 1018 hPa | - | - | - | - |
| 1777454844 | 26.67° C | 31% | 1018 hPa | - | - | - | - |
| 1777453942 | 25.56° C | 33% | 1018 hPa | - | - | - | - |
| 1777453041 | 26.11° C | 31% | 1018 hPa | - | - | - | - |
| 1777452140 | 25.56° C | 31% | 1017 hPa | - | - | - | - |
| 1777451239 | 25° C | 32% | 1017 hPa | - | - | - | - |
* Rain since midnight (hover to see other rain measurements)
** Current wind speed in m/s (hover to see current wind gust speed)